Time;durP1;ratioP1;P1;durP2;ratioP2;P2;SDS_P1;SDS_P2;PMS_P1;PMS_P2;Temp;Humidity;BMP_temperature;BMP_pressure;BME280_temperature;BME280_humidity;BME280_pressure;Samples;Min_cycle;Max_cycle;Signal;HPM_P1;HPM_P2
2023/08/04 00:00:15;;;;;;;1.90;1.53;;;14.90;99.90;;;;;;5006830;28;20183;-71
2023/08/04 00:02:41;;;;;;;2.60;1.40;;;14.90;99.90;;;;;;4996550;28;20179;-70
2023/08/04 00:05:08;;;;;;;1.73;1.63;;;14.80;99.90;;;;;;4992794;28;20184;-70
2023/08/04 00:07:34;;;;;;;2.00;1.80;;;14.80;99.90;;;;;;5004392;28;20230;-70
2023/08/04 00:10:00;;;;;;;2.77;1.90;;;14.70;99.90;;;;;;4996572;28;20445;-70
2023/08/04 00:12:26;;;;;;;2.17;1.80;;;14.70;99.90;;;;;;5003225;28;20521;-70
2023/08/04 00:14:51;;;;;;;1.70;1.60;;;14.70;99.90;;;;;;4999253;28;20445;-70
2023/08/04 00:17:17;;;;;;;2.93;1.50;;;14.70;99.90;;;;;;4992862;28;20286;-70
2023/08/04 00:19:43;;;;;;;3.30;1.67;;;14.70;99.90;;;;;;5005008;28;20179;-70
2023/08/04 00:22:09;;;;;;;2.57;2.17;;;14.70;99.90;;;;;;5003304;28;20186;-70
2023/08/04 00:24:34;;;;;;;1.83;1.50;;;14.70;99.90;;;;;;5009462;28;20214;-70
2023/08/04 00:27:00;;;;;;;1.77;1.57;;;14.70;99.90;;;;;;4996171;28;20617;-70
2023/08/04 00:29:26;;;;;;;1.73;1.63;;;14.70;99.90;;;;;;4992123;28;20688;-70
2023/08/04 00:31:52;;;;;;;4.30;1.60;;;14.70;99.90;;;;;;5004032;28;20476;-70
2023/08/04 00:34:18;;;;;;;1.57;1.47;;;14.70;99.90;;;;;;5008859;28;20672;-70
2023/08/04 00:36:47;;;;;;;2.33;2.10;;;14.60;99.90;;;;;;5001529;28;20835;-70
2023/08/04 00:39:13;;;;;;;4.07;1.60;;;14.60;99.90;;;;;;5003554;28;20187;-70
2023/08/04 00:41:39;;;;;;;2.60;1.50;;;14.50;99.90;;;;;;4994909;28;20518;-69
2023/08/04 00:44:05;;;;;;;1.67;1.57;;;14.40;99.90;;;;;;5007623;28;20513;-69
2023/08/04 00:46:31;;;;;;;1.90;1.80;;;14.40;99.90;;;;;;4997517;28;20262;-70
2023/08/04 00:48:59;;;;;;;4.73;1.50;;;14.30;99.90;;;;;;4991783;28;20203;-70
2023/08/04 00:51:25;;;;;;;4.60;1.53;;;14.20;99.90;;;;;;4993965;28;20442;-70
2023/08/04 00:53:50;;;;;;;2.60;1.90;;;14.20;99.90;;;;;;5000678;28;20589;-69
2023/08/04 00:56:16;;;;;;;1.77;1.67;;;14.10;99.90;;;;;;5003581;28;20209;-70
2023/08/04 00:58:42;;;;;;;6.23;3.00;;;14.10;99.90;;;;;;4992966;28;20695;-69
2023/08/04 01:01:07;;;;;;;2.13;1.80;;;14.10;99.90;;;;;;4989532;28;20203;-69
2023/08/04 01:03:34;;;;;;;2.60;2.40;;;14.20;99.90;;;;;;4996730;28;20194;-70
2023/08/04 01:06:29;;;;;;;1.50;1.40;;;14.20;99.90;;;;;;4997853;28;20187;-70
2023/08/04 01:09:21;;;;;;;2.53;1.50;;;14.30;99.90;;;;;;4994420;28;20464;-70
2023/08/04 01:12:10;;;;;;;1.70;1.43;;;14.20;99.90;;;;;;4988922;28;20859;-70
2023/08/04 01:14:38;;;;;;;4.40;2.13;;;14.20;99.90;;;;;;4995902;28;20469;-70
2023/08/04 01:17:26;;;;;;;2.40;1.43;;;14.30;99.90;;;;;;4999864;28;20466;-69
2023/08/04 01:19:52;;;;;;;2.20;1.37;;;14.20;99.90;;;;;;5001238;28;20510;-70
2023/08/04 01:22:18;;;;;;;1.70;1.60;;;14.30;99.90;;;;;;4989116;28;20492;-69
2023/08/04 01:24:44;;;;;;;3.20;1.30;;;14.30;99.90;;;;;;5003208;28;20493;-69
2023/08/04 01:27:13;;;;;;;3.23;1.40;;;14.30;99.90;;;;;;5004336;28;20458;-69
2023/08/04 01:29:42;;;;;;;2.13;1.87;;;14.20;99.90;;;;;;5006317;28;20436;-70
2023/08/04 01:32:08;;;;;;;1.50;1.40;;;14.20;99.90;;;;;;4999011;28;20501;-70
2023/08/04 01:34:33;;;;;;;3.70;1.53;;;14.20;99.90;;;;;;4995975;28;20885;-70
2023/08/04 01:36:59;;;;;;;1.70;1.53;;;14.20;99.90;;;;;;4999844;28;20462;-70
2023/08/04 01:39:25;;;;;;;2.47;1.60;;;14.30;99.90;;;;;;5003037;28;20190;-69
2023/08/04 01:41:51;;;;;;;2.90;1.50;;;14.20;99.90;;;;;;5003761;28;20183;-69
2023/08/04 01:44:16;;;;;;;2.43;2.10;;;14.40;99.90;;;;;;5000106;28;20457;-70
2023/08/04 01:46:42;;;;;;;1.67;1.57;;;14.30;99.90;;;;;;4998117;28;20195;-70
2023/08/04 01:49:09;;;;;;;1.77;1.60;;;14.20;99.90;;;;;;4999500;28;20689;-70
2023/08/04 01:51:35;;;;;;;2.20;1.67;;;14.20;99.90;;;;;;5000891;28;20182;-69
2023/08/04 01:54:01;;;;;;;1.70;1.60;;;14.10;99.90;;;;;;5004888;28;20881;-69
2023/08/04 01:56:26;;;;;;;1.87;1.30;;;14.10;99.90;;;;;;4997472;28;20809;-69
2023/08/04 01:58:52;;;;;;;5.03;1.70;;;14.10;99.90;;;;;;4993485;28;20207;-69
2023/08/04 02:01:18;;;;;;;4.90;2.37;;;14.20;99.90;;;;;;4994876;28;20209;-70
2023/08/04 02:03:43;;;;;;;3.23;2.03;;;14.20;99.90;;;;;;5004615;28;20634;-70
2023/08/04 02:06:09;;;;;;;2.60;1.50;;;14.20;99.90;;;;;;5003323;28;20438;-69
2023/08/04 02:08:34;;;;;;;3.00;1.47;;;14.30;99.90;;;;;;5008901;28;20230;-69
2023/08/04 02:11:00;;;;;;;2.80;1.80;;;14.30;99.90;;;;;;4991721;28;20214;-69
2023/08/04 02:13:25;;;;;;;6.20;1.70;;;14.30;99.90;;;;;;4989738;28;20226;-69
2023/08/04 02:15:51;;;;;;;1.60;1.50;;;14.30;99.90;;;;;;4996789;28;20185;-69
2023/08/04 02:18:16;;;;;;;1.47;1.37;;;14.30;99.90;;;;;;4994518;28;20276;-69
2023/08/04 02:20:42;;;;;;;3.47;1.63;;;14.30;99.90;;;;;;5000642;28;20175;-70
2023/08/04 02:23:08;;;;;;;2.70;1.43;;;14.30;99.90;;;;;;4994393;28;20258;-70
2023/08/04 02:25:33;;;;;;;2.10;1.37;;;14.30;99.90;;;;;;4991424;28;20226;-70
2023/08/04 02:27:59;;;;;;;1.50;1.40;;;14.30;99.90;;;;;;4990951;28;20207;-70
2023/08/04 02:30:25;;;;;;;2.40;1.47;;;14.30;99.90;;;;;;5002208;28;20183;-69
2023/08/04 02:32:50;;;;;;;2.20;1.80;;;14.40;99.90;;;;;;4995383;28;20199;-69
2023/08/04 02:35:16;;;;;;;1.60;1.50;;;14.40;99.90;;;;;;5004801;28;20492;-70
2023/08/04 02:37:41;;;;;;;1.93;1.63;;;14.40;99.90;;;;;;5000773;28;20195;-70
2023/08/04 02:40:07;;;;;;;1.93;1.33;;;14.40;99.90;;;;;;5000260;28;20218;-70
2023/08/04 02:42:33;;;;;;;1.47;1.37;;;14.40;99.90;;;;;;5002375;28;20563;-69
2023/08/04 02:44:58;;;;;;;2.30;1.33;;;14.50;99.90;;;;;;5002679;28;20438;-69
2023/08/04 02:47:24;;;;;;;2.73;1.40;;;14.50;99.90;;;;;;4992688;28;20203;-70
2023/08/04 02:49:49;;;;;;;5.13;1.80;;;14.50;99.90;;;;;;4992271;28;20179;-69
2023/08/04 02:52:16;;;;;;;2.70;1.50;;;14.50;99.90;;;;;;5001146;28;20179;-69
2023/08/04 02:54:42;;;;;;;1.73;1.60;;;14.50;99.90;;;;;;5006061;28;20734;-69
2023/08/04 02:57:08;;;;;;;1.80;1.70;;;14.50;99.90;;;;;;5000415;28;20461;-70
2023/08/04 02:59:33;;;;;;;1.90;1.40;;;14.50;99.90;;;;;;4990171;28;20434;-70
2023/08/04 03:01:59;;;;;;;2.10;1.30;;;14.40;99.90;;;;;;4989840;28;20194;-70
2023/08/04 03:04:24;;;;;;;1.60;1.50;;;14.40;99.90;;;;;;4991529;28;20179;-69
2023/08/04 03:06:50;;;;;;;1.63;1.53;;;14.40;99.90;;;;;;5006819;28;20190;-69
2023/08/04 03:09:15;;;;;;;1.40;1.13;;;14.40;99.90;;;;;;4995008;28;20221;-70
2023/08/04 03:11:42;;;;;;;1.73;1.60;;;14.40;99.90;;;;;;4988287;28;20188;-69
2023/08/04 03:14:07;;;;;;;1.90;1.67;;;14.40;99.90;;;;;;4991672;28;20288;-70
2023/08/04 03:16:33;;;;;;;2.80;1.40;;;14.40;99.90;;;;;;5004147;28;20999;-69
2023/08/04 03:18:58;;;;;;;2.50;2.03;;;14.40;99.90;;;;;;4990333;28;20184;-69
2023/08/04 03:21:24;;;;;;;3.07;1.60;;;14.40;99.90;;;;;;4991934;28;20184;-69
2023/08/04 03:23:49;;;;;;;2.20;1.47;;;14.50;99.90;;;;;;4990790;28;20684;-70
2023/08/04 03:26:15;;;;;;;3.03;1.73;;;14.50;99.90;;;;;;4995318;28;20183;-69
2023/08/04 03:28:40;;;;;;;3.47;1.47;;;14.50;99.90;;;;;;5000644;28;20215;-69
2023/08/04 03:31:06;;;;;;;1.83;1.70;;;14.60;99.90;;;;;;4994597;28;20191;-69
2023/08/04 03:33:32;;;;;;;1.40;1.30;;;14.60;99.90;;;;;;4998698;28;20626;-70
2023/08/04 03:35:57;;;;;;;1.63;1.53;;;14.60;99.90;;;;;;4993241;28;20171;-70
2023/08/04 03:38:23;;;;;;;1.83;1.53;;;14.70;99.90;;;;;;4993942;28;20199;-69
2023/08/04 03:40:48;;;;;;;1.27;1.17;;;14.70;99.90;;;;;;4994441;28;20221;-69
2023/08/04 03:43:14;;;;;;;1.87;1.60;;;14.70;99.90;;;;;;4995296;28;20187;-69
2023/08/04 03:45:39;;;;;;;1.83;1.50;;;14.60;99.90;;;;;;4995128;28;20191;-69
2023/08/04 03:48:05;;;;;;;1.80;1.70;;;14.50;99.90;;;;;;4991824;28;20222;-70
2023/08/04 03:50:31;;;;;;;1.83;1.60;;;14.50;99.90;;;;;;4995495;28;20212;-69
2023/08/04 03:52:56;;;;;;;2.70;2.10;;;14.50;99.90;;;;;;5002066;28;20204;-69
2023/08/04 03:55:22;;;;;;;2.60;1.70;;;14.50;99.90;;;;;;4997837;28;20190;-69
2023/08/04 03:57:47;;;;;;;2.53;1.40;;;14.50;99.90;;;;;;5004019;28;20195;-69
2023/08/04 04:00:13;;;;;;;1.30;1.20;;;14.50;99.90;;;;;;4990431;28;20531;-69
2023/08/04 04:02:39;;;;;;;1.43;1.33;;;14.50;99.90;;;;;;4993348;28;20199;-69
2023/08/04 04:05:04;;;;;;;2.07;1.90;;;14.50;99.90;;;;;;5003487;28;20534;-69
2023/08/04 04:07:30;;;;;;;1.77;1.47;;;14.50;99.90;;;;;;5008142;28;20457;-69
2023/08/04 04:09:56;;;;;;;2.23;1.40;;;14.60;99.90;;;;;;4996481;28;20187;-70
2023/08/04 04:12:21;;;;;;;3.00;2.50;;;14.60;99.90;;;;;;4996244;28;20181;-69
2023/08/04 04:14:47;;;;;;;1.93;1.57;;;14.60;99.90;;;;;;4996337;28;20191;-69
2023/08/04 04:17:12;;;;;;;2.30;1.63;;;14.60;99.90;;;;;;5004146;28;20216;-70
2023/08/04 04:19:38;;;;;;;1.30;1.20;;;14.70;99.90;;;;;;5000403;28;20187;-69
2023/08/04 04:22:04;;;;;;;2.10;1.60;;;14.70;99.90;;;;;;5007406;28;20190;-70
2023/08/04 04:24:29;;;;;;;2.30;1.50;;;14.70;99.90;;;;;;5003207;28;20201;-70
2023/08/04 04:26:55;;;;;;;2.43;1.67;;;14.70;99.90;;;;;;5006429;28;20207;-69
2023/08/04 04:29:20;;;;;;;2.93;1.50;;;14.70;99.90;;;;;;5003956;28;20206;-69
2023/08/04 04:31:46;;;;;;;2.40;1.43;;;14.80;99.90;;;;;;4992182;28;20619;-69
2023/08/04 04:34:12;;;;;;;2.43;1.77;;;14.90;99.90;;;;;;4996863;28;20204;-70
2023/08/04 04:36:37;;;;;;;1.67;1.57;;;14.90;99.90;;;;;;4993715;28;20187;-69
2023/08/04 04:39:03;;;;;;;2.00;1.63;;;15.10;99.90;;;;;;4995511;28;20222;-69
2023/08/04 04:41:29;;;;;;;1.93;1.70;;;15.10;99.90;;;;;;4996946;28;20183;-70
2023/08/04 04:43:55;;;;;;;5.10;1.70;;;15.30;99.90;;;;;;5004500;28;20785;-70
2023/08/04 04:46:20;;;;;;;3.37;2.13;;;15.30;99.90;;;;;;5010948;28;20437;-70
2023/08/04 04:48:46;;;;;;;1.67;1.50;;;15.30;99.90;;;;;;5001920;28;20569;-70
2023/08/04 04:51:11;;;;;;;2.83;1.70;;;15.40;99.90;;;;;;4999757;28;20191;-70
2023/08/04 04:53:37;;;;;;;2.30;1.53;;;15.50;99.90;;;;;;5003855;28;20222;-70
2023/08/04 04:56:03;;;;;;;3.63;1.67;;;15.50;99.90;;;;;;5001218;28;20692;-70
2023/08/04 04:58:28;;;;;;;1.87;1.70;;;15.60;99.90;;;;;;4995064;28;20262;-70
2023/08/04 05:01:05;;;;;;;2.97;1.60;;;15.60;99.90;;;;;;4992380;28;20189;-70
2023/08/04 05:03:31;;;;;;;3.77;1.77;;;15.60;99.90;;;;;;4990516;28;20214;-69
2023/08/04 05:05:57;;;;;;;7.77;2.10;;;15.60;99.90;;;;;;4993759;28;20439;-70
2023/08/04 05:08:22;;;;;;;3.93;1.60;;;15.60;99.90;;;;;;5005520;28;20686;-70
2023/08/04 05:10:51;;;;;;;2.80;1.80;;;15.70;99.90;;;;;;5000553;28;20187;-70
2023/08/04 05:13:17;;;;;;;4.53;1.83;;;15.60;99.90;;;;;;4992985;28;20217;-70
2023/08/04 05:15:42;;;;;;;2.23;1.77;;;15.60;99.90;;;;;;4993406;28;20533;-70
2023/08/04 05:18:08;;;;;;;2.87;2.03;;;15.70;99.90;;;;;;5016544;22;20883;-69
2023/08/04 05:20:33;;;;;;;1.77;1.50;;;15.80;99.90;;;;;;5022994;28;20174;-70
2023/08/04 05:22:59;;;;;;;2.10;1.90;;;15.90;99.90;;;;;;5009836;28;20187;-70
2023/08/04 05:25:25;;;;;;;2.27;2.07;;;16.20;99.90;;;;;;5016467;28;20218;-70
2023/08/04 05:27:50;;;;;;;2.57;1.40;;;16.40;99.90;;;;;;5022326;28;20237;-70
2023/08/04 05:30:16;;;;;;;4.13;1.80;;;16.60;99.90;;;;;;4992727;28;20194;-70
2023/08/04 05:32:42;;;;;;;2.50;1.60;;;16.80;99.90;;;;;;4990643;28;20183;-70
2023/08/04 05:35:09;;;;;;;1.77;1.40;;;16.70;99.90;;;;;;4989578;28;20621;-69
2023/08/04 05:37:34;;;;;;;1.40;1.30;;;16.70;99.90;;;;;;4997692;28;20175;-70
2023/08/04 05:40:01;;;;;;;1.60;1.50;;;16.80;99.90;;;;;;4999335;28;20996;-70
2023/08/04 05:42:26;;;;;;;2.83;1.57;;;16.90;99.90;;;;;;4991318;28;20183;-70
2023/08/04 05:44:52;;;;;;;2.00;1.77;;;16.90;99.90;;;;;;4992192;28;20784;-70
2023/08/04 05:47:19;;;;;;;1.83;1.73;;;17.00;99.90;;;;;;4998064;28;20199;-70
2023/08/04 05:49:47;;;;;;;7.73;1.93;;;17.00;99.90;;;;;;4990753;28;20200;-69
2023/08/04 05:52:12;;;;;;;2.60;1.47;;;17.00;99.90;;;;;;4989165;28;20952;-70
2023/08/04 05:54:38;;;;;;;2.40;2.23;;;16.70;99.90;;;;;;4990082;28;20473;-70
2023/08/04 05:57:04;;;;;;;2.03;1.67;;;16.70;99.90;;;;;;4989905;28;20176;-70
2023/08/04 05:59:29;;;;;;;1.70;1.47;;;16.70;99.90;;;;;;4990990;28;20226;-70
2023/08/04 06:01:55;;;;;;;1.27;1.17;;;16.80;99.90;;;;;;4994472;28;20226;-70
2023/08/04 06:04:20;;;;;;;4.07;2.27;;;16.90;99.90;;;;;;4990629;28;20183;-70
2023/08/04 06:06:46;;;;;;;3.43;1.73;;;17.00;99.90;;;;;;4988708;28;20190;-70
2023/08/04 06:09:11;;;;;;;1.80;1.50;;;17.00;99.90;;;;;;4991462;28;20652;-70
2023/08/04 06:11:37;;;;;;;1.73;1.63;;;17.00;99.90;;;;;;4995510;28;20555;-70
2023/08/04 06:14:03;;;;;;;2.83;1.63;;;17.00;99.90;;;;;;4997171;28;20668;-70
2023/08/04 06:16:28;;;;;;;3.37;1.70;;;17.00;99.90;;;;;;5007656;28;20183;-70
2023/08/04 06:18:53;;;;;;;7.97;4.40;;;17.10;99.90;;;;;;4991804;28;20203;-69
2023/08/04 06:21:19;;;;;;;1.50;1.40;;;17.30;99.90;;;;;;4998641;28;20275;-69
2023/08/04 06:23:47;;;;;;;2.67;1.50;;;17.40;99.90;;;;;;4990698;28;20183;-69
2023/08/04 06:26:13;;;;;;;2.10;1.90;;;17.60;99.90;;;;;;4988050;28;20180;-70
2023/08/04 06:28:40;;;;;;;3.23;1.70;;;17.70;99.90;;;;;;4990002;28;20513;-70
2023/08/04 06:31:05;;;;;;;1.90;1.80;;;17.80;99.90;;;;;;4990270;28;20234;-69
2023/08/04 06:33:31;;;;;;;1.50;1.40;;;18.00;99.90;;;;;;4991455;28;20470;-70
2023/08/04 06:35:56;;;;;;;3.97;2.07;;;18.20;99.90;;;;;;4989577;28;20270;-70
2023/08/04 06:38:22;;;;;;;2.90;1.70;;;18.40;99.90;;;;;;4996112;28;20207;-70
2023/08/04 06:40:49;;;;;;;3.77;1.80;;;18.50;99.90;;;;;;4998186;28;20183;-70
2023/08/04 06:43:14;;;;;;;1.90;1.30;;;18.60;99.90;;;;;;4991433;28;20566;-69
2023/08/04 06:45:40;;;;;;;2.50;1.73;;;18.80;99.90;;;;;;4992893;28;20437;-70
2023/08/04 06:48:05;;;;;;;2.90;1.60;;;19.00;99.90;;;;;;4992898;28;20743;-69
2023/08/04 06:50:31;;;;;;;3.03;1.17;;;19.00;99.90;;;;;;5000030;28;20267;-69
2023/08/04 06:52:56;;;;;;;2.73;1.87;;;19.00;99.90;;;;;;4991199;28;20231;-70
2023/08/04 06:55:22;;;;;;;2.03;1.50;;;19.30;99.90;;;;;;4990594;28;20190;-70
2023/08/04 06:57:47;;;;;;;2.40;1.47;;;19.40;99.90;;;;;;4983989;28;20179;-69
2023/08/04 07:00:13;;;;;;;1.87;1.20;;;19.60;99.90;;;;;;4989160;28;20649;-70
2023/08/04 07:02:40;;;;;;;1.40;1.30;;;19.60;99.90;;;;;;5005612;28;20183;-69
2023/08/04 07:05:06;;;;;;;1.77;1.67;;;19.70;99.90;;;;;;4990941;28;20885;-68
2023/08/04 07:07:31;;;;;;;1.93;1.73;;;19.80;99.90;;;;;;4990885;28;20434;-69
2023/08/04 07:09:57;;;;;;;2.30;1.33;;;19.80;99.90;;;;;;4992948;28;20679;-68
2023/08/04 07:12:22;;;;;;;1.70;1.60;;;20.00;99.90;;;;;;4985864;28;20187;-70
2023/08/04 07:14:48;;;;;;;2.20;2.00;;;20.20;99.90;;;;;;4994150;28;20243;-68
2023/08/04 07:17:13;;;;;;;3.23;1.60;;;20.60;99.90;;;;;;4990931;28;20263;-68
2023/08/04 07:19:39;;;;;;;2.87;2.03;;;20.80;99.90;;;;;;5000020;28;20219;-70
2023/08/04 07:22:04;;;;;;;4.17;1.43;;;20.90;99.90;;;;;;4994053;28;20226;-71
2023/08/04 07:24:31;;;;;;;2.37;1.23;;;21.00;99.90;;;;;;4998918;28;20652;-70
2023/08/04 07:26:56;;;;;;;2.07;1.40;;;21.20;99.90;;;;;;4996606;28;20702;-74
2023/08/04 07:29:22;;;;;;;1.77;1.37;;;21.10;99.90;;;;;;4992352;28;20469;-70
2023/08/04 07:31:47;;;;;;;1.43;1.33;;;21.20;99.90;;;;;;4987844;28;20585;-70
2023/08/04 07:34:13;;;;;;;2.20;1.57;;;21.20;99.90;;;;;;4987733;28;20223;-67
2023/08/04 07:36:38;;;;;;;4.03;1.40;;;21.60;99.90;;;;;;4991195;28;20551;-67
2023/08/04 07:39:04;;;;;;;1.70;1.40;;;21.50;99.90;;;;;;4990252;28;20211;-67
2023/08/04 07:41:30;;;;;;;2.10;2.00;;;21.80;99.90;;;;;;4996164;28;20194;-67
2023/08/04 07:43:55;;;;;;;2.47;1.30;;;22.20;99.90;;;;;;5002063;28;20310;-67
2023/08/04 07:46:26;;;;;;;3.13;1.40;;;22.80;99.90;;;;;;4998787;28;20517;-68
2023/08/04 07:48:53;;;;;;;4.10;1.37;;;23.70;99.90;;;;;;4992859;28;20278;-67
2023/08/04 07:51:20;;;;;;;1.93;1.37;;;24.70;99.90;;;;;;4998511;28;20442;-67
2023/08/04 07:53:46;;;;;;;1.73;1.47;;;25.40;99.90;;;;;;4991091;28;20528;-68
2023/08/04 07:56:12;;;;;;;2.20;1.30;;;25.70;99.90;;;;;;4990278;28;20510;-67
2023/08/04 07:58:37;;;;;;;2.33;1.10;;;25.60;99.90;;;;;;4986942;28;20492;-67
2023/08/04 08:01:04;;;;;;;1.30;1.20;;;25.40;99.90;;;;;;4991637;28;20430;-67
2023/08/04 08:03:33;;;;;;;3.07;1.40;;;25.20;99.90;;;;;;4991543;28;20614;-67
2023/08/04 08:05:59;;;;;;;2.97;1.70;;;24.70;99.90;;;;;;4990711;28;21190;-67
2023/08/04 08:08:25;;;;;;;2.00;1.30;;;24.20;99.90;;;;;;4989654;28;20548;-67
2023/08/04 08:10:51;;;;;;;3.73;1.43;;;23.20;99.90;;;;;;4989589;28;20291;-67
2023/08/04 08:13:16;;;;;;;1.80;1.63;;;22.70;99.90;;;;;;4987811;28;20597;-67
2023/08/04 08:15:42;;;;;;;3.63;1.70;;;22.30;99.90;;;;;;4990247;28;20285;-67
2023/08/04 08:18:08;;;;;;;1.90;1.63;;;22.30;99.90;;;;;;4986897;28;20226;-67
2023/08/04 08:20:33;;;;;;;1.63;1.40;;;22.30;99.90;;;;;;4992165;28;20199;-68
2023/08/04 08:22:59;;;;;;;1.93;1.30;;;22.40;99.90;;;;;;4993146;28;20438;-68
2023/08/04 08:25:24;;;;;;;1.60;1.30;;;22.60;99.90;;;;;;4991616;28;20176;-68
2023/08/04 08:27:50;;;;;;;1.60;1.30;;;22.80;99.90;;;;;;4991144;28;20725;-68
2023/08/04 08:30:16;;;;;;;2.10;1.57;;;22.90;99.90;;;;;;4991143;28;20175;-68
2023/08/04 08:32:41;;;;;;;2.63;1.10;;;22.80;99.90;;;;;;4988388;28;20187;-67
2023/08/04 08:35:07;;;;;;;3.80;2.87;;;22.90;99.90;;;;;;4986604;28;20183;-68
2023/08/04 08:37:33;;;;;;;1.80;1.70;;;22.80;99.90;;;;;;4984181;28;20297;-68
2023/08/04 08:39:58;;;;;;;4.97;1.90;;;22.70;99.90;;;;;;4986511;28;20213;-68
2023/08/04 08:42:24;;;;;;;2.50;1.67;;;23.20;99.90;;;;;;4990808;28;20286;-68
2023/08/04 08:44:49;;;;;;;0.93;0.90;;;23.30;99.90;;;;;;4993891;28;20184;-68
2023/08/04 08:47:17;;;;;;;2.23;1.30;;;23.00;99.90;;;;;;5000092;28;20286;-68
2023/08/04 08:49:47;;;;;;;1.87;1.17;;;22.80;99.90;;;;;;4990990;28;20203;-68
2023/08/04 08:52:13;;;;;;;1.53;1.00;;;22.70;99.90;;;;;;4990680;28;20474;-68
2023/08/04 08:54:39;;;;;;;2.17;1.60;;;23.10;99.90;;;;;;4994666;28;20474;-68
2023/08/04 08:57:06;;;;;;;1.33;1.20;;;23.30;99.90;;;;;;5000731;28;20469;-69
2023/08/04 08:59:32;;;;;;;2.30;1.30;;;23.80;99.90;;;;;;4995427;28;20492;-69
2023/08/04 09:02:00;;;;;;;2.27;2.17;;;24.30;99.90;;;;;;4995710;28;20469;-68
2023/08/04 09:04:26;;;;;;;1.63;1.00;;;24.60;99.90;;;;;;4999459;28;20446;-68
2023/08/04 09:06:55;;;;;;;1.60;1.27;;;24.90;99.90;;;;;;4991590;28;20442;-68
2023/08/04 09:09:21;;;;;;;1.97;1.30;;;25.10;99.90;;;;;;4987430;28;20258;-69
2023/08/04 09:11:47;;;;;;;2.00;1.67;;;24.90;98.70;;;;;;4988999;28;20434;-69
2023/08/04 09:14:13;;;;;;;4.50;2.00;;;25.40;98.80;;;;;;4988550;28;20210;-69
2023/08/04 09:16:39;;;;;;;2.07;1.30;;;25.20;98.90;;;;;;4991245;28;20434;-69
2023/08/04 09:19:06;;;;;;;1.30;1.20;;;24.70;99.50;;;;;;4987773;28;20591;-68
2023/08/04 09:21:32;;;;;;;1.67;1.40;;;24.20;99.90;;;;;;4990064;28;20852;-69
2023/08/04 09:23:58;;;;;;;2.97;1.27;;;24.90;99.90;;;;;;4989274;28;20431;-70
2023/08/04 09:26:24;;;;;;;2.33;1.07;;;26.10;99.10;;;;;;4991873;28;20811;-69
2023/08/04 09:29:04;;;;;;;2.77;1.73;;;26.60;95.00;;;;;;4988381;28;20298;-69
2023/08/04 09:31:40;;;;;;;2.73;1.40;;;26.60;93.70;;;;;;4991695;28;20503;-69
2023/08/04 09:34:07;;;;;;;1.00;1.00;;;26.10;94.20;;;;;;4986423;28;20462;-69
2023/08/04 09:36:47;;;;;;;2.33;1.20;;;25.80;95.60;;;;;;4989520;28;20518;-69
2023/08/04 09:39:14;;;;;;;1.93;1.20;;;25.80;95.70;;;;;;4987477;28;20466;-70
2023/08/04 09:41:44;;;;;;;1.80;1.10;;;26.60;93.90;;;;;;4990121;28;20445;-70
2023/08/04 09:44:11;;;;;;;1.00;0.80;;;27.70;91.20;;;;;;4991430;28;20520;-70
2023/08/04 09:46:51;;;;;;;2.20;1.93;;;28.50;89.80;;;;;;4997784;28;20449;-70
2023/08/04 09:49:18;;;;;;;2.37;1.27;;;29.60;82.90;;;;;;4998799;28;20615;-70
2023/08/04 09:51:44;;;;;;;1.60;1.50;;;30.30;77.40;;;;;;4991100;28;20969;-70
2023/08/04 09:54:10;;;;;;;5.20;1.50;;;31.00;76.30;;;;;;4990904;28;20470;-70
2023/08/04 09:56:36;;;;;;;5.73;1.80;;;31.50;73.90;;;;;;4991353;28;20203;-70
2023/08/04 09:59:02;;;;;;;3.87;1.80;;;30.70;74.90;;;;;;4986689;28;20952;-69
2023/08/04 10:01:29;;;;;;;3.17;1.60;;;29.70;77.20;;;;;;4987448;28;20179;-69
2023/08/04 10:03:57;;;;;;;3.67;1.77;;;28.70;80.00;;;;;;4988941;28;20857;-69
2023/08/04 10:06:23;;;;;;;2.63;1.63;;;27.20;87.20;;;;;;4989807;28;20439;-69
2023/08/04 10:08:53;;;;;;;4.00;1.50;;;25.90;93.40;;;;;;4997042;28;20458;-69
2023/08/04 10:11:20;;;;;;;2.27;1.53;;;24.60;99.10;;;;;;4990194;28;21029;-70
2023/08/04 10:13:49;;;;;;;2.73;1.60;;;23.70;99.90;;;;;;4991364;28;20466;-68
2023/08/04 10:16:18;;;;;;;3.60;1.70;;;23.20;99.90;;;;;;5005491;28;20438;-69
2023/08/04 10:18:50;;;;;;;1.37;1.27;;;23.00;99.90;;;;;;4997825;28;20488;-69
2023/08/04 10:21:18;;;;;;;12.43;3.37;;;22.90;99.90;;;;;;4997704;28;20999;-69
2023/08/04 10:23:44;;;;;;;4.40;2.10;;;23.10;99.90;;;;;;5003610;28;20434;-69
2023/08/04 10:26:13;;;;;;;4.27;1.50;;;23.30;99.90;;;;;;4988315;28;20924;-69
2023/08/04 10:29:03;;;;;;;5.47;2.80;;;23.20;99.90;;;;;;4991308;28;20207;-68
2023/08/04 10:31:45;;;;;;;2.80;2.43;;;23.50;99.90;;;;;;4991937;28;20505;-68
2023/08/04 10:34:19;;;;;;;1.67;1.50;;;23.70;99.90;;;;;;4997701;28;21065;-68
2023/08/04 10:36:55;;;;;;;2.03;1.70;;;23.10;99.90;;;;;;5006068;28;20449;-69
2023/08/04 10:39:32;;;;;;;2.50;1.63;;;22.70;99.90;;;;;;4993683;28;20445;-68
2023/08/04 10:41:59;;;;;;;5.67;4.20;;;22.60;99.90;;;;;;4988878;28;20449;-67
2023/08/04 10:44:46;;;;;;;3.83;2.90;;;22.70;99.90;;;;;;4996565;28;20430;-68
2023/08/04 10:47:12;;;;;;;5.10;2.73;;;22.70;99.90;;;;;;5000338;28;20437;-68
2023/08/04 10:49:37;;;;;;;2.90;1.53;;;22.80;99.90;;;;;;4977644;28;20455;-68
2023/08/04 10:52:04;;;;;;;3.10;2.43;;;22.50;99.90;;;;;;4996261;28;20434;-69
2023/08/04 10:54:29;;;;;;;2.30;2.10;;;22.40;99.90;;;;;;4993107;28;20633;-68
2023/08/04 10:56:55;;;;;;;2.67;1.80;;;22.50;99.90;;;;;;4996058;28;20513;-68
2023/08/04 10:59:21;;;;;;;2.23;1.87;;;22.60;99.90;;;;;;4994880;28;20602;-69
2023/08/04 11:01:48;;;;;;;2.03;1.30;;;22.60;99.90;;;;;;4993174;28;20180;-70
2023/08/04 11:04:18;;;;;;;2.33;1.40;;;22.80;99.90;;;;;;4993673;28;20187;-71
2023/08/04 11:06:44;;;;;;;1.80;1.70;;;23.40;99.90;;;;;;4997992;28;21139;-70
2023/08/04 11:09:10;;;;;;;2.00;1.67;;;23.90;99.90;;;;;;4986881;28;20463;-70
2023/08/04 11:11:36;;;;;;;4.20;1.87;;;24.60;99.90;;;;;;4986370;28;20450;-69
2023/08/04 11:14:06;;;;;;;2.97;1.90;;;25.40;99.90;;;;;;4981209;28;20581;-70
2023/08/04 11:16:35;;;;;;;3.33;1.43;;;26.70;99.90;;;;;;4992936;28;20175;-69
2023/08/04 11:19:03;;;;;;;2.00;1.87;;;27.80;99.80;;;;;;5009799;23;20548;-69
2023/08/04 11:21:29;;;;;;;1.30;1.20;;;29.80;94.30;;;;;;5014075;28;20465;-68
2023/08/04 11:23:55;;;;;;;2.07;1.33;;;31.10;87.90;;;;;;5010150;28;20457;-69
2023/08/04 11:26:22;;;;;;;2.40;1.40;;;31.40;80.60;;;;;;5005142;28;20810;-67
2023/08/04 11:28:47;;;;;;;2.40;1.50;;;30.90;80.80;;;;;;5019914;28;20288;-67
2023/08/04 11:31:20;;;;;;;2.80;1.57;;;29.90;82.90;;;;;;5003819;28;20938;-67
2023/08/04 11:33:45;;;;;;;1.57;1.47;;;28.90;86.60;;;;;;5001890;28;20214;-67
2023/08/04 11:36:11;;;;;;;1.90;1.80;;;27.30;93.40;;;;;;4996099;28;21013;-67
2023/08/04 11:38:37;;;;;;;2.70;1.93;;;26.30;97.40;;;;;;4994495;28;20676;-69
2023/08/04 11:41:06;;;;;;;2.43;2.23;;;25.30;99.90;;;;;;4994943;28;20644;-69
2023/08/04 11:43:32;;;;;;;3.63;2.10;;;24.10;99.90;;;;;;4996442;28;20437;-69
2023/08/04 11:46:00;;;;;;;2.60;2.40;;;23.40;99.90;;;;;;5003601;28;20476;-69
2023/08/04 11:48:26;;;;;;;1.70;1.60;;;22.90;99.90;;;;;;5008228;28;20488;-69
2023/08/04 11:50:56;;;;;;;3.77;2.10;;;22.50;99.90;;;;;;4996246;28;20450;-69
2023/08/04 11:53:22;;;;;;;4.10;2.10;;;22.00;99.90;;;;;;4992841;28;20211;-69
2023/08/04 11:55:56;;;;;;;2.23;2.03;;;21.70;99.90;;;;;;4994052;28;20569;-70
2023/08/04 11:58:54;;;;;;;2.67;2.30;;;21.40;99.90;;;;;;4999795;28;21001;-69
2023/08/04 12:01:33;;;;;;;2.73;2.53;;;20.90;99.90;;;;;;4985097;28;20453;-69
2023/08/04 12:03:59;;;;;;;2.70;2.50;;;20.60;99.90;;;;;;4988919;28;20434;-69
2023/08/04 12:06:26;;;;;;;3.80;2.30;;;20.40;99.90;;;;;;4993027;28;20962;-69
2023/08/04 12:08:59;;;;;;;3.43;2.20;;;20.40;99.90;;;;;;4992682;28;20454;-69
2023/08/04 12:11:27;;;;;;;5.63;2.20;;;20.40;99.90;;;;;;4985822;28;20474;-68
2023/08/04 12:14:06;;;;;;;4.47;2.13;;;20.50;99.90;;;;;;4992173;28;20467;-68
2023/08/04 12:16:31;;;;;;;3.10;2.00;;;20.80;99.90;;;;;;4993580;28;20440;-69
2023/08/04 12:19:06;;;;;;;2.27;2.07;;;21.20;99.90;;;;;;4992486;28;20838;-68
2023/08/04 12:21:31;;;;;;;2.10;1.90;;;21.50;99.90;;;;;;4997343;28;20273;-69
2023/08/04 12:23:57;;;;;;;3.23;2.13;;;22.40;99.90;;;;;;4991249;28;20446;-70
2023/08/04 12:26:23;;;;;;;2.20;2.00;;;24.30;99.90;;;;;;4993184;28;20187;-70
2023/08/04 12:28:48;;;;;;;2.30;2.10;;;26.40;99.90;;;;;;5000489;28;20203;-70
2023/08/04 12:31:14;;;;;;;1.77;1.60;;;27.40;99.90;;;;;;5001051;28;20529;-70
2023/08/04 12:33:39;;;;;;;1.60;1.50;;;26.80;99.90;;;;;;4993718;28;20211;-70
2023/08/04 12:36:05;;;;;;;2.80;1.70;;;25.80;99.90;;;;;;4991300;28;20172;-70
2023/08/04 12:38:30;;;;;;;3.17;1.90;;;25.10;99.90;;;;;;4990886;28;20199;-70
2023/08/04 12:40:56;;;;;;;3.37;2.17;;;24.70;99.90;;;;;;4992641;28;20589;-70
2023/08/04 12:43:22;;;;;;;2.70;2.37;;;24.60;99.90;;;;;;5005719;28;20269;-70
2023/08/04 12:45:48;;;;;;;2.33;1.17;;;24.70;99.90;;;;;;4991985;28;20187;-70